Time;durP1;ratioP1;P1;durP2;ratioP2;P2;SDS_P1;SDS_P2;PMS_P1;PMS_P2;Temp;Humidity;BMP_temperature;BMP_pressure;BME280_temperature;BME280_humidity;BME280_pressure;Samples;Min_cycle;Max_cycle;Signal;HPM_P1;HPM_P2
2021/07/01 00:00:55;;;;;;;;;;;13.90;99.90;;;;;;5015657;28;19921;-83
2021/07/01 00:03:21;;;;;;;;;;;13.90;99.90;;;;;;5015671;28;19921;-89
2021/07/01 00:05:46;;;;;;;;;;;13.90;99.90;;;;;;5033621;28;19936;-83
2021/07/01 00:08:12;;;;;;;;;;;14.00;99.90;;;;;;5003833;28;19914;-89
2021/07/01 00:10:38;;;;;;;;;;;14.00;99.90;;;;;;5033389;28;19921;-85
2021/07/01 00:13:03;;;;;;;;;;;14.00;99.90;;;;;;5032608;28;19965;-85
2021/07/01 00:15:30;;;;;;;;;;;14.00;99.90;;;;;;5032790;28;19925;-80
2021/07/01 00:17:56;;;;;;;;;;;14.00;99.90;;;;;;5032031;28;19917;-83
2021/07/01 00:20:22;;;;;;;;;;;13.90;99.90;;;;;;5033112;28;19913;-83
2021/07/01 00:22:48;;;;;;;;;;;14.00;99.90;;;;;;5032728;28;19916;-89
2021/07/01 00:25:15;;;;;;;;;;;13.90;99.90;;;;;;5016089;28;20328;-83
2021/07/01 00:27:40;;;;;;;;;;;13.90;99.90;;;;;;5017448;28;19921;-83
2021/07/01 00:30:07;;;;;;;;;;;13.90;99.90;;;;;;5014484;28;19918;-84
2021/07/01 00:32:32;;;;;;;;;;;14.00;99.90;;;;;;5017258;28;19913;-83
2021/07/01 00:34:58;;;;;;;;;;;14.00;99.90;;;;;;5016943;28;19972;-83
2021/07/01 00:37:23;;;;;;;;;;;14.10;99.90;;;;;;5016866;28;19975;-85
2021/07/01 00:39:49;;;;;;;;;;;14.00;99.90;;;;;;5032438;28;19964;-82
2021/07/01 00:42:15;;;;;;;;;;;14.00;99.90;;;;;;5030723;28;19928;-85
2021/07/01 00:44:40;;;;;;;;;;;14.00;99.90;;;;;;5016276;28;20317;-84
2021/07/01 00:47:06;;;;;;;;;;;14.00;99.90;;;;;;5015165;28;20297;-88
2021/07/01 00:49:32;;;;;;;;;;;14.00;99.90;;;;;;5016491;28;19916;-86
2021/07/01 00:51:57;;;;;;;;;;;14.00;99.90;;;;;;5016285;28;19909;-86
2021/07/01 00:54:23;;;;;;;;;;;14.00;99.90;;;;;;5016475;28;19914;-84
2021/07/01 00:56:49;;;;;;;;;;;14.00;99.90;;;;;;5031586;28;19921;-83
2021/07/01 00:59:16;;;;;;;;;;;14.00;99.90;;;;;;5035568;28;20292;-84
2021/07/01 01:01:41;;;;;;;;;;;14.00;99.90;;;;;;5036315;28;19913;-85
2021/07/01 01:04:07;;;;;;;;;;;14.00;99.90;;;;;;5035528;28;19913;-87
2021/07/01 01:06:33;;;;;;;;;;;14.00;99.90;;;;;;5035469;28;19955;-86
2021/07/01 01:09:00;;;;;;;;;;;14.00;99.90;;;;;;5033916;28;19917;-81
2021/07/01 01:11:27;;;;;;;;;;;14.00;99.90;;;;;;5017948;28;20309;-85
2021/07/01 01:13:54;;;;;;;;;;;13.90;99.90;;;;;;5024932;28;19913;-81
2021/07/01 01:16:19;;;;;;;;;;;13.90;99.90;;;;;;5032942;28;19913;-80
2021/07/01 01:18:45;;;;;;;;;;;13.90;99.90;;;;;;5035769;28;20312;-87
2021/07/01 01:21:11;;;;;;;;;;;13.90;99.90;;;;;;5031999;28;19961;-85
2021/07/01 01:23:37;;;;;;;;;;;13.90;99.90;;;;;;5025669;28;19955;-85
2021/07/01 01:26:03;;;;;;;;;;;13.90;99.90;;;;;;5017529;28;19913;-85
2021/07/01 01:28:28;;;;;;;;;;;13.90;99.90;;;;;;5035239;28;19932;-86
2021/07/01 01:30:54;;;;;;;;;;;13.90;99.90;;;;;;5035490;28;19982;-84
2021/07/01 01:33:20;;;;;;;;;;;13.90;99.90;;;;;;5035414;28;19913;-86
2021/07/01 01:35:45;;;;;;;;;;;13.90;99.90;;;;;;5035765;28;19921;-84
2021/07/01 01:38:12;;;;;;;;;;;13.90;99.90;;;;;;5022334;28;19928;-87
2021/07/01 01:40:39;;;;;;;;;;;13.90;99.90;;;;;;5032066;28;19914;-84
2021/07/01 01:43:04;;;;;;;;;;;14.00;99.90;;;;;;5034375;28;19935;-84
2021/07/01 01:45:30;;;;;;;;;;;13.90;99.90;;;;;;5035957;28;19920;-83
2021/07/01 01:47:56;;;;;;;;;;;13.90;99.90;;;;;;5033478;28;20239;-86
2021/07/01 01:50:23;;;;;;;;;;;13.90;99.90;;;;;;5034990;28;19917;-86
2021/07/01 01:52:51;;;;;;;;;;;13.90;99.90;;;;;;5034583;28;20133;-86
2021/07/01 01:55:16;;;;;;;;;;;13.90;99.90;;;;;;5035231;28;20592;-83
2021/07/01 01:57:43;;;;;;;;;;;13.90;99.90;;;;;;5035830;28;19971;-86
2021/07/01 02:00:09;;;;;;;;;;;13.90;99.90;;;;;;5035607;28;19952;-88
2021/07/01 02:02:35;;;;;;;;;;;13.90;99.90;;;;;;5035756;28;20236;-86
2021/07/01 02:05:00;;;;;;;;;;;13.90;99.90;;;;;;5034942;28;19909;-87
2021/07/01 02:07:26;;;;;;;;;;;13.90;99.90;;;;;;5035039;28;19921;-84
2021/07/01 02:09:51;;;;;;;;;;;13.90;99.90;;;;;;5035754;28;19931;-85
2021/07/01 02:12:17;;;;;;;;;;;13.90;99.90;;;;;;5034578;28;20228;-88
2021/07/01 02:14:42;;;;;;;;;;;13.90;99.90;;;;;;5017975;28;20236;-84
2021/07/01 02:17:08;;;;;;;;;;;13.90;99.90;;;;;;5035511;28;19920;-86
2021/07/01 02:19:33;;;;;;;;;;;13.90;99.90;;;;;;5017063;28;19940;-81
2021/07/01 02:21:59;;;;;;;;;;;13.90;99.90;;;;;;5035412;28;20604;-80
2021/07/01 02:24:24;;;;;;;;;;;13.90;99.90;;;;;;5038050;28;19970;-86
2021/07/01 02:26:50;;;;;;;;;;;13.90;99.90;;;;;;5017479;28;20292;-85
2021/07/01 02:29:16;;;;;;;;;;;13.90;99.90;;;;;;5033578;28;20929;-84
2021/07/01 02:31:41;;;;;;;;;;;13.80;99.90;;;;;;5026186;28;20063;-85
2021/07/01 02:34:07;;;;;;;;;;;13.80;99.90;;;;;;5033048;28;19979;-88
2021/07/01 02:36:32;;;;;;;;;;;13.80;99.90;;;;;;5031903;28;19914;-90
2021/07/01 02:38:58;;;;;;;;;;;13.80;99.90;;;;;;5026864;28;19913;-85
2021/07/01 02:41:23;;;;;;;;;;;13.80;99.90;;;;;;5033350;28;19913;-83
2021/07/01 02:43:49;;;;;;;;;;;13.80;99.90;;;;;;5035385;28;20541;-86
2021/07/01 02:46:15;;;;;;;;;;;13.80;99.90;;;;;;5035135;28;20253;-90
2021/07/01 02:48:40;;;;;;;;;;;13.80;99.90;;;;;;5030588;28;19913;-86
2021/07/01 02:51:06;;;;;;;;;;;13.80;99.90;;;;;;5020405;28;19975;-92
2021/07/01 02:53:31;;;;;;;;;;;13.80;99.90;;;;;;5016544;28;19913;-88
2021/07/01 02:55:57;;;;;;;;;;;13.70;99.90;;;;;;5028092;28;19918;-82
2021/07/01 02:58:22;;;;;;;;;;;13.70;99.90;;;;;;5015336;28;19917;-86
2021/07/01 03:00:48;;;;;;;;;;;13.70;99.90;;;;;;5016330;28;19913;-85
2021/07/01 03:03:13;;;;;;;;;;;13.70;99.90;;;;;;5015904;28;19913;-83
2021/07/01 03:05:39;;;;;;;;;;;13.70;99.90;;;;;;5033757;28;19913;-82
2021/07/01 03:08:04;;;;;;;;;;;13.70;99.90;;;;;;5032878;28;19970;-85
2021/07/01 03:10:30;;;;;;;;;;;13.80;99.90;;;;;;5021652;28;19921;-87
2021/07/01 03:12:55;;;;;;;;;;;13.80;99.90;;;;;;5033968;28;19952;-88
2021/07/01 03:15:21;;;;;;;;;;;13.80;99.90;;;;;;5016422;28;19913;-84
2021/07/01 03:17:46;;;;;;;;;;;13.80;99.90;;;;;;5017292;28;19913;-87
2021/07/01 03:20:12;;;;;;;;;;;13.80;99.90;;;;;;5034470;28;19971;-86
2021/07/01 03:22:37;;;;;;;;;;;13.80;99.90;;;;;;5029348;28;19914;-85
2021/07/01 03:25:03;;;;;;;;;;;13.90;99.90;;;;;;5034225;28;20003;-87
2021/07/01 03:27:29;;;;;;;;;;;13.90;99.90;;;;;;5034500;28;20212;-86
2021/07/01 03:29:54;;;;;;;;;;;13.90;99.90;;;;;;5031696;28;19921;-92
2021/07/01 03:32:20;;;;;;;;;;;13.90;99.90;;;;;;5017192;28;19913;-88
2021/07/01 03:34:45;;;;;;;;;;;13.90;99.90;;;;;;5015568;28;19909;-88
2021/07/01 03:37:11;;;;;;;;;;;13.90;99.90;;;;;;5017023;28;20193;-87
2021/07/01 03:39:37;;;;;;;;;;;13.90;99.90;;;;;;5020851;28;19909;-91
2021/07/01 03:42:03;;;;;;;;;;;13.90;99.90;;;;;;5037690;28;19909;-85
2021/07/01 03:44:28;;;;;;;;;;;13.90;99.90;;;;;;5037663;28;20145;-87
2021/07/01 03:46:54;;;;;;;;;;;13.90;99.90;;;;;;5038464;28;20330;-86
2021/07/01 03:49:19;;;;;;;;;;;13.90;99.90;;;;;;5036834;28;19925;-82
2021/07/01 03:51:45;;;;;;;;;;;13.90;99.90;;;;;;5036745;28;19970;-86
2021/07/01 03:54:11;;;;;;;;;;;13.90;99.90;;;;;;5021049;28;20270;-86
2021/07/01 03:56:43;;;;;;;;;;;13.90;99.90;;;;;;5037061;28;20393;-83
2021/07/01 03:59:09;;;;;;;;;;;13.90;99.90;;;;;;5037994;28;19913;-86
2021/07/01 04:01:35;;;;;;;;;;;13.90;99.90;;;;;;5037115;28;19975;-84
2021/07/01 04:04:00;;;;;;;;;;;13.90;99.90;;;;;;5037060;28;20263;-84
2021/07/01 04:06:26;;;;;;;;;;;13.90;99.90;;;;;;5038054;28;19913;-84
2021/07/01 04:08:51;;;;;;;;;;;13.90;99.90;;;;;;5037082;28;19992;-87
2021/07/01 04:11:17;;;;;;;;;;;13.90;99.90;;;;;;5033741;28;19918;-85
2021/07/01 04:13:42;;;;;;;;;;;13.90;99.90;;;;;;5035961;28;19916;-84
2021/07/01 04:16:08;;;;;;;;;;;13.90;99.90;;;;;;5040576;28;19917;-87
2021/07/01 04:18:33;;;;;;;;;;;13.90;99.90;;;;;;5035990;28;19913;-86
2021/07/01 04:20:59;;;;;;;;;;;13.90;99.90;;;;;;5036101;28;19921;-83
2021/07/01 04:23:25;;;;;;;;;;;13.90;99.90;;;;;;5031420;28;19913;-87
2021/07/01 04:25:51;;;;;;;;;;;14.00;99.90;;;;;;5037050;28;19916;-88
2021/07/01 04:28:17;;;;;;;;;;;13.90;99.90;;;;;;5035520;28;20223;-84
2021/07/01 04:30:42;;;;;;;;;;;14.00;99.90;;;;;;5017878;28;19913;-87
2021/07/01 04:33:08;;;;;;;;;;;14.00;99.90;;;;;;5020209;28;19979;-86
2021/07/01 04:35:33;;;;;;;;;;;14.00;99.90;;;;;;5031268;28;19909;-88
2021/07/01 04:37:59;;;;;;;;;;;14.00;99.90;;;;;;5035717;28;19916;-81
2021/07/01 04:40:25;;;;;;;;;;;14.00;99.90;;;;;;5025956;28;19932;-87
2021/07/01 04:42:50;;;;;;;;;;;14.00;99.90;;;;;;5035617;28;19915;-83
2021/07/01 04:45:16;;;;;;;;;;;14.00;99.90;;;;;;5039838;28;20012;-85
2021/07/01 04:47:41;;;;;;;;;;;14.00;99.90;;;;;;5019160;28;19909;-84
2021/07/01 04:50:07;;;;;;;;;;;14.00;99.90;;;;;;5016252;28;19956;-84
2021/07/01 04:52:33;;;;;;;;;;;14.00;99.90;;;;;;5010802;28;19910;-85
2021/07/01 04:54:58;;;;;;;;;;;14.10;99.90;;;;;;5030323;28;20286;-84
2021/07/01 04:57:24;;;;;;;;;;;14.10;99.90;;;;;;5035800;28;19927;-86
2021/07/01 04:59:50;;;;;;;;;;;14.10;99.90;;;;;;5036103;28;19917;-84
2021/07/01 05:02:15;;;;;;;;;;;14.10;99.90;;;;;;5033565;28;20228;-84
2021/07/01 05:04:41;;;;;;;;;;;14.10;99.90;;;;;;5034354;28;19913;-84
2021/07/01 05:07:06;;;;;;;;;;;14.10;99.90;;;;;;5032679;28;19910;-85
2021/07/01 05:09:32;;;;;;;;;;;14.10;99.90;;;;;;5036236;28;20004;-85
2021/07/01 05:11:57;;;;;;;;;;;14.20;99.90;;;;;;5029831;28;20228;-84
2021/07/01 05:14:23;;;;;;;;;;;14.10;99.90;;;;;;5014728;28;19917;-83
2021/07/01 05:16:48;;;;;;;;;;;14.10;99.90;;;;;;5034019;28;19974;-82
2021/07/01 05:19:14;;;;;;;;;;;14.10;99.90;;;;;;5035557;28;19913;-83
2021/07/01 05:21:40;;;;;;;;;;;14.10;99.90;;;;;;5034913;28;19924;-83
2021/07/01 05:24:05;;;;;;;;;;;14.10;99.90;;;;;;5034452;28;19909;-83
2021/07/01 05:26:31;;;;;;;;;;;14.20;99.90;;;;;;5017587;28;19963;-83
2021/07/01 05:28:56;;;;;;;;;;;14.20;99.90;;;;;;5015101;28;20318;-83
2021/07/01 05:31:22;;;;;;;;;;;14.20;99.90;;;;;;5034526;28;19921;-84
2021/07/01 05:33:48;;;;;;;;;;;14.20;99.90;;;;;;5035838;28;19914;-84
2021/07/01 05:36:13;;;;;;;;;;;14.20;99.90;;;;;;5035204;28;19909;-85
2021/07/01 05:38:39;;;;;;;;;;;14.20;99.90;;;;;;5035525;28;19957;-83
2021/07/01 05:41:05;;;;;;;;;;;14.20;99.90;;;;;;5035486;28;20004;-84
2021/07/01 05:43:30;;;;;;;;;;;14.20;99.90;;;;;;5034197;28;19910;-82
2021/07/01 05:45:56;;;;;;;;;;;14.20;99.90;;;;;;5017472;28;19913;-86
2021/07/01 05:48:23;;;;;;;;;;;14.20;99.90;;;;;;5032990;28;19989;-84
2021/07/01 05:53:26;;;;;;;;;;;14.20;99.90;;;;;;5034830;28;19913;-84
2021/07/01 05:55:52;;;;;;;;;;;14.30;99.90;;;;;;5035056;28;19995;-85
2021/07/01 05:58:17;;;;;;;;;;;14.30;99.90;;;;;;5033238;28;20286;-83
2021/07/01 06:00:43;;;;;;;;;;;14.20;99.90;;;;;;5030495;28;19920;-80
2021/07/01 06:03:09;;;;;;;;;;;14.30;99.90;;;;;;5015537;28;20032;-80
2021/07/01 06:05:36;;;;;;;;;;;14.30;99.90;;;;;;5029221;28;19913;-82
2021/07/01 06:08:03;;;;;;;;;;;14.30;99.90;;;;;;5028570;28;19914;-83
2021/07/01 06:10:29;;;;;;;;;;;14.30;99.90;;;;;;5032603;28;20224;-83
2021/07/01 06:12:55;;;;;;;;;;;14.30;99.90;;;;;;5029160;28;19913;-82
2021/07/01 06:15:20;;;;;;;;;;;14.40;99.90;;;;;;5033235;28;20380;-83
2021/07/01 06:17:47;;;;;;;;;;;14.40;99.90;;;;;;5033295;28;19909;-83
2021/07/01 06:20:13;;;;;;;;;;;14.50;99.90;;;;;;5030856;28;19913;-87
2021/07/01 06:22:39;;;;;;;;;;;14.50;99.90;;;;;;5033496;28;19921;-85
2021/07/01 06:25:05;;;;;;;;;;;14.50;99.90;;;;;;5017269;28;19920;-83
2021/07/01 06:30:02;;;;;;;;;;;14.60;99.90;;;;;;5031833;28;20366;-83
2021/07/01 06:32:28;;;;;;;;;;;14.60;99.90;;;;;;5014678;28;19917;-84
2021/07/01 06:34:53;;;;;;;;;;;14.70;99.90;;;;;;5032255;28;20331;-83
2021/07/01 06:37:19;;;;;;;;;;;14.70;99.90;;;;;;5034926;28;19923;-81
2021/07/01 06:39:46;;;;;;;;;;;14.70;99.90;;;;;;5034444;28;19913;-86
2021/07/01 06:42:14;;;;;;;;;;;14.70;99.90;;;;;;5034630;28;20397;-87
2021/07/01 06:44:40;;;;;;;;;;;14.70;99.90;;;;;;5031818;28;19921;-85
2021/07/01 06:47:07;;;;;;;;;;;14.70;99.90;;;;;;5034439;28;20335;-84
2021/07/01 06:49:33;;;;;;;;;;;14.70;99.90;;;;;;5033079;28;19975;-84
2021/07/01 06:51:59;;;;;;;;;;;14.70;99.90;;;;;;5034088;28;19929;-83
2021/07/01 06:54:25;;;;;;;;;;;14.70;99.90;;;;;;5033887;28;19917;-85
2021/07/01 06:56:52;;;;;;;;;;;14.70;99.90;;;;;;5034339;28;20228;-83
2021/07/01 06:59:18;;;;;;;;;;;14.60;99.90;;;;;;5034685;28;20220;-83
2021/07/01 07:01:44;;;;;;;;;;;14.60;99.90;;;;;;5034366;28;19917;-83
2021/07/01 07:04:10;;;;;;;;;;;14.60;99.90;;;;;;5027397;28;19925;-81
2021/07/01 07:06:36;;;;;;;;;;;14.70;99.90;;;;;;5016714;28;19920;-86
2021/07/01 07:09:02;;;;;;;;;;;14.70;99.90;;;;;;5034293;28;19913;-88
2021/07/01 07:11:28;;;;;;;;;;;14.70;99.90;;;;;;5031564;28;19998;-85
2021/07/01 07:13:56;;;;;;;;;;;14.80;99.90;;;;;;5032063;28;19920;-86
2021/07/01 07:16:21;;;;;;;;;;;14.80;99.90;;;;;;5010246;28;19913;-83
2021/07/01 07:18:49;;;;;;;;;;;14.80;99.90;;;;;;5038085;28;20311;-86
2021/07/01 07:21:17;;;;;;;;;;;14.90;99.90;;;;;;5038616;28;19913;-85
2021/07/01 07:23:42;;;;;;;;;;;15.00;99.90;;;;;;5025726;28;20036;-82
2021/07/01 07:26:15;;;;;;;;;;;15.00;99.90;;;;;;5032122;28;19936;-79
2021/07/01 07:28:47;;;;;;;;;;;15.00;99.90;;;;;;5012178;28;19913;-86
2021/07/01 07:31:17;;;;;;;;;;;15.10;99.90;;;;;;5035224;28;19971;-87
2021/07/01 07:33:43;;;;;;;;;;;15.00;99.90;;;;;;5020431;28;19960;-82
2021/07/01 07:36:08;;;;;;;;;;;15.10;99.90;;;;;;5034075;28;20260;-81
2021/07/01 07:38:34;;;;;;;;;;;15.00;99.90;;;;;;5036721;28;19920;-84
2021/07/01 07:41:00;;;;;;;;;;;15.00;99.90;;;;;;5036986;28;19913;-79
2021/07/01 07:43:27;;;;;;;;;;;15.00;99.90;;;;;;5037245;28;19952;-85
2021/07/01 07:45:54;;;;;;;;;;;15.10;99.90;;;;;;5024691;28;19919;-85
2021/07/01 07:48:20;;;;;;;;;;;15.00;99.90;;;;;;5039849;28;20613;-79
2021/07/01 07:50:48;;;;;;;;;;;15.00;99.90;;;;;;5036900;28;19921;-79
2021/07/01 07:53:17;;;;;;;;;;;15.10;99.90;;;;;;5036868;28;19914;-80
2021/07/01 07:55:44;;;;;;;;;;;15.10;99.90;;;;;;5022198;28;20016;-80
2021/07/01 07:58:12;;;;;;;;;;;15.10;99.90;;;;;;5032705;28;19920;-78
2021/07/01 08:00:38;;;;;;;;;;;15.10;99.90;;;;;;5022396;28;19913;-79
2021/07/01 08:03:07;;;;;;;;;;;15.20;99.90;;;;;;5036073;28;19909;-85
2021/07/01 08:05:33;;;;;;;;;;;15.30;99.90;;;;;;5016093;28;19920;-86
2021/07/01 08:07:59;;;;;;;;;;;15.30;99.90;;;;;;5014494;28;19952;-87
2021/07/01 08:10:33;;;;;;;;;;;15.40;99.90;;;;;;5024324;28;19925;-78
2021/07/01 08:13:04;;;;;;;;;;;15.40;99.90;;;;;;5035524;28;19917;-87
2021/07/01 08:15:34;;;;;;;;;;;15.60;99.90;;;;;;5017104;28;19917;-86
2021/07/01 08:18:00;;;;;;;;;;;15.60;99.90;;;;;;5034495;28;20323;-79
2021/07/01 08:20:26;;;;;;;;;;;15.70;99.90;;;;;;5018574;28;19917;-79
2021/07/01 08:22:52;;;;;;;;;;;15.70;99.90;;;;;;5033867;28;19913;-82
2021/07/01 08:25:18;;;;;;;;;;;15.70;99.90;;;;;;5034428;28;19931;-83
2021/07/01 08:27:45;;;;;;;;;;;15.70;99.90;;;;;;5018376;28;19909;-82
2021/07/01 08:30:12;;;;;;;;;;;15.70;99.90;;;;;;5019852;28;19917;-80
2021/07/01 08:32:38;;;;;;;;;;;15.70;99.90;;;;;;5035818;28;19992;-79
2021/07/01 08:35:04;;;;;;;;;;;15.80;99.90;;;;;;5037532;28;19949;-84
2021/07/01 08:37:30;;;;;;;;;;;15.80;99.90;;;;;;5033951;28;19948;-81
2021/07/01 08:40:00;;;;;;;;;;;15.80;99.90;;;;;;5038998;28;19921;-83
2021/07/01 08:42:31;;;;;;;;;;;15.80;99.90;;;;;;5037006;28;19910;-79
2021/07/01 08:45:00;;;;;;;;;;;15.80;99.90;;;;;;5047714;28;19915;-82
2021/07/01 08:47:29;;;;;;;;;;;15.70;99.90;;;;;;5044682;28;19913;-86
2021/07/01 08:49:55;;;;;;;;;;;15.70;99.90;;;;;;5039652;28;19917;-87
2021/07/01 08:52:23;;;;;;;;;;;15.60;99.90;;;;;;5018488;28;19920;-81
2021/07/01 08:54:54;;;;;;;;;;;15.60;99.90;;;;;;5036143;28;19920;-80
2021/07/01 08:57:21;;;;;;;;;;;15.60;99.90;;;;;;5040920;28;19944;-79
2021/07/01 08:59:54;;;;;;;;;;;15.50;99.90;;;;;;5034706;28;20015;-79
2021/07/01 09:02:24;;;;;;;;;;;15.50;99.90;;;;;;5022440;28;19996;-86
2021/07/01 09:04:56;;;;;;;;;;;15.60;99.90;;;;;;5037723;28;20038;-79
2021/07/01 09:07:23;;;;;;;;;;;15.60;99.90;;;;;;5043071;28;19924;-80
2021/07/01 09:09:53;;;;;;;;;;;15.60;99.90;;;;;;5039363;28;19920;-81
2021/07/01 09:12:21;;;;;;;;;;;15.70;99.90;;;;;;5021353;28;20265;-79
2021/07/01 09:14:49;;;;;;;;;;;15.70;99.90;;;;;;5038910;28;19909;-81
2021/07/01 09:17:16;;;;;;;;;;;15.80;99.90;;;;;;5033782;28;19913;-82
2021/07/01 09:19:42;;;;;;;;;;;15.90;99.90;;;;;;5043629;28;20318;-85
2021/07/01 09:22:12;;;;;;;;;;;15.90;99.90;;;;;;5035843;28;19924;-80
2021/07/01 09:24:38;;;;;;;;;;;15.90;99.90;;;;;;5011564;28;19917;-80
2021/07/01 09:27:09;;;;;;;;;;;15.90;99.90;;;;;;5036454;28;19914;-81
2021/07/01 09:29:35;;;;;;;;;;;16.00;99.90;;;;;;5036412;28;19912;-83
2021/07/01 09:32:01;;;;;;;;;;;16.00;99.90;;;;;;5029635;28;19925;-82
2021/07/01 09:34:27;;;;;;;;;;;16.00;99.90;;;;;;5018889;28;19910;-82
2021/07/01 09:36:55;;;;;;;;;;;16.10;99.90;;;;;;5040222;28;20312;-80
2021/07/01 09:39:22;;;;;;;;;;;16.00;99.90;;;;;;5035627;28;19925;-80
2021/07/01 09:41:47;;;;;;;;;;;16.00;99.90;;;;;;5036508;28;20368;-80
2021/07/01 09:44:16;;;;;;;;;;;16.00;99.90;;;;;;5043704;28;19999;-81
2021/07/01 09:46:45;;;;;;;;;;;16.10;99.90;;;;;;5041438;28;19928;-85
2021/07/01 09:49:15;;;;;;;;;;;16.10;99.90;;;;;;5040835;28;19917;-83
2021/07/01 09:51:41;;;;;;;;;;;16.10;99.90;;;;;;5037327;28;19924;-79
2021/07/01 09:54:09;;;;;;;;;;;16.20;99.90;;;;;;5016261;28;19960;-79
2021/07/01 09:56:40;;;;;;;;;;;16.30;99.90;;;;;;5014378;28;19921;-83
2021/07/01 09:59:26;;;;;;;;;;;16.30;99.90;;;;;;5034599;28;20296;-82
2021/07/01 10:01:51;;;;;;;;;;;16.40;99.90;;;;;;5043899;28;19912;-84
2021/07/01 10:04:17;;;;;;;;;;;16.50;99.90;;;;;;5029255;28;20004;-82
2021/07/01 10:06:43;;;;;;;;;;;16.50;99.90;;;;;;5010710;28;19965;-83
2021/07/01 10:09:27;;;;;;;;;;;16.60;99.90;;;;;;5044274;28;19964;-85
2021/07/01 10:11:52;;;;;;;;;;;16.50;99.90;;;;;;5045161;28;19996;-88
2021/07/01 10:14:19;;;;;;;;;;;16.40;99.90;;;;;;5034435;28;20247;-79
2021/07/01 10:16:45;;;;;;;;;;;16.40;99.90;;;;;;5035581;28;20224;-83
2021/07/01 10:19:17;;;;;;;;;;;16.40;99.90;;;;;;5033877;28;19921;-79
2021/07/01 10:21:44;;;;;;;;;;;16.40;99.90;;;;;;5024570;28;20220;-82
2021/07/01 10:24:11;;;;;;;;;;;16.40;99.90;;;;;;5042325;28;19948;-80
2021/07/01 10:26:38;;;;;;;;;;;16.40;99.90;;;;;;5037196;28;20012;-85
2021/07/01 10:29:03;;;;;;;;;;;16.40;99.90;;;;;;5033647;28;19913;-81
2021/07/01 10:31:47;;;;;;;;;;;16.50;99.90;;;;;;5045388;28;20355;-80
2021/07/01 10:34:13;;;;;;;;;;;16.50;99.90;;;;;;5015697;28;19925;-82
2021/07/01 10:36:38;;;;;;;;;;;16.50;99.90;;;;;;5037986;28;20251;-79
2021/07/01 10:39:04;;;;;;;;;;;16.60;99.90;;;;;;5033157;28;19967;-87
2021/07/01 10:41:30;;;;;;;;;;;16.60;99.90;;;;;;5033197;28;19932;-86
2021/07/01 10:43:57;;;;;;;;;;;16.60;99.90;;;;;;5033712;28;19909;-87
2021/07/01 10:46:38;;;;;;;;;;;16.60;99.90;;;;;;5034266;28;20334;-85
2021/07/01 10:49:05;;;;;;;;;;;16.60;99.90;;;;;;5016728;28;19917;-83
2021/07/01 10:51:31;;;;;;;;;;;16.60;99.90;;;;;;5037988;28;20307;-81
2021/07/01 10:54:13;;;;;;;;;;;16.60;99.90;;;;;;5035033;28;19920;-83
2021/07/01 10:56:43;;;;;;;;;;;16.60;99.90;;;;;;5038337;28;20292;-80
2021/07/01 10:59:10;;;;;;;;;;;16.60;99.90;;;;;;5034920;28;19913;-84
2021/07/01 11:01:37;;;;;;;;;;;16.60;99.90;;;;;;5021891;28;20315;-84
2021/07/01 11:04:03;;;;;;;;;;;16.60;99.90;;;;;;5039770;28;19913;-82
2021/07/01 11:06:29;;;;;;;;;;;16.70;99.90;;;;;;5030023;28;19913;-81
2021/07/01 11:08:55;;;;;;;;;;;16.70;99.90;;;;;;5039528;28;20323;-80
2021/07/01 11:11:22;;;;;;;;;;;16.70;99.90;;;;;;5046462;28;19953;-80
2021/07/01 11:13:58;;;;;;;;;;;16.80;99.90;;;;;;5045940;28;19916;-83
2021/07/01 11:16:31;;;;;;;;;;;16.80;99.90;;;;;;5033809;28;19966;-80
2021/07/01 11:18:56;;;;;;;;;;;17.00;99.90;;;;;;5036771;28;19913;-81
2021/07/01 11:21:22;;;;;;;;;;;17.10;99.90;;;;;;5036058;28;20220;-84
2021/07/01 11:24:07;;;;;;;;;;;17.10;99.90;;;;;;5021071;28;19936;-82
2021/07/01 11:26:33;;;;;;;;;;;17.00;99.90;;;;;;5033432;28;19921;-83
2021/07/01 11:28:59;;;;;;;;;;;17.10;99.90;;;;;;5039318;28;19924;-83
2021/07/01 11:31:34;;;;;;;;;;;17.10;99.90;;;;;;5038850;28;19928;-87
2021/07/01 11:34:01;;;;;;;;;;;17.10;99.90;;;;;;5040466;28;19956;-82
2021/07/01 11:36:27;;;;;;;;;;;17.20;99.90;;;;;;5040425;28;19917;-81
2021/07/01 11:39:02;;;;;;;;;;;17.30;99.90;;;;;;5036721;28;20059;-78
2021/07/01 11:41:28;;;;;;;;;;;17.40;99.90;;;;;;5040954;28;19916;-80
2021/07/01 11:43:54;;;;;;;;;;;17.50;99.90;;;;;;5034415;28;19912;-84
2021/07/01 11:46:19;;;;;;;;;;;17.40;99.90;;;;;;5042429;28;20538;-82
2021/07/01 11:48:49;;;;;;;;;;;17.30;99.90;;;;;;5026167;28;19909;-80
2021/07/01 11:51:15;;;;;;;;;;;17.40;99.90;;;;;;5042265;28;20332;-85
2021/07/01 11:53:40;;;;;;;;;;;17.50;99.90;;;;;;5037133;28;19913;-81
2021/07/01 11:56:06;;;;;;;;;;;17.60;99.90;;;;;;5018708;28;19921;-81
2021/07/01 11:58:32;;;;;;;;;;;17.70;99.90;;;;;;5021807;28;20267;-82
2021/07/01 12:00:57;;;;;;;;;;;17.80;99.90;;;;;;5026765;28;19909;-80
2021/07/01 12:03:23;;;;;;;;;;;17.90;99.90;;;;;;5043021;28;19909;-84
2021/07/01 12:05:50;;;;;;;;;;;17.80;99.90;;;;;;5036050;28;20089;-83
2021/07/01 12:08:16;;;;;;;;;;;17.90;99.90;;;;;;5039207;28;19988;-81
2021/07/01 12:10:44;;;;;;;;;;;18.00;99.90;;;;;;5043907;28;20044;-82
2021/07/01 12:13:29;;;;;;;;;;;18.30;99.90;;;;;;5043002;28;19914;-80
2021/07/01 12:16:08;;;;;;;;;;;18.40;99.90;;;;;;5011448;28;19909;-83
2021/07/01 12:19:06;;;;;;;;;;;18.60;99.90;;;;;;5047707;28;19979;-81
2021/07/01 12:21:32;;;;;;;;;;;18.80;99.90;;;;;;4994866;28;19926;-85
2021/07/01 12:24:00;;;;;;;;;;;19.00;99.90;;;;;;4978313;28;19920;-79
2021/07/01 12:26:36;;;;;;;;;;;19.20;99.90;;;;;;4979990;28;19996;-79
2021/07/01 12:29:03;;;;;;;;;;;19.30;99.90;;;;;;4977935;28;20037;-83
2021/07/01 12:31:28;;;;;;;;;;;19.20;99.90;;;;;;4994236;28;19925;-79
2021/07/01 12:33:55;;;;;;;;;;;19.10;99.90;;;;;;4994892;28;19910;-82
2021/07/01 12:36:24;;;;;;;;;;;19.00;99.90;;;;;;4977290;28;20348;-84
2021/07/01 12:39:08;;;;;;;;;;;18.80;99.90;;;;;;4994602;28;19926;-79
2021/07/01 12:41:35;;;;;;;;;;;18.90;99.90;;;;;;4967497;28;20024;-77
2021/07/01 12:44:02;;;;;;;;;;;18.80;99.90;;;;;;4978847;28;20225;-78
2021/07/01 12:46:43;;;;;;;;;;;18.80;99.90;;;;;;4993794;28;19937;-80
2021/07/01 12:49:14;;;;;;;;;;;18.80;99.90;;;;;;4981539;28;20013;-79
2021/07/01 12:51:40;;;;;;;;;;;18.60;99.90;;;;;;4993391;28;19918;-79
2021/07/01 12:54:13;;;;;;;;;;;18.30;99.90;;;;;;4994910;28;19950;-86
2021/07/01 12:57:01;;;;;;;;;;;18.30;99.90;;;;;;4998040;28;19928;-79
2021/07/01 12:59:37;;;;;;;;;;;18.30;99.90;;;;;;5034494;28;19921;-77
2021/07/01 13:02:10;;;;;;;;;;;18.10;99.90;;;;;;5036472;28;20297;-78
2021/07/01 13:04:36;;;;;;;;;;;18.10;99.90;;;;;;5034169;28;20410;-82
2021/07/01 13:07:03;;;;;;;;;;;17.90;99.90;;;;;;5035742;28;19920;-79
2021/07/01 13:09:33;;;;;;;;;;;17.90;99.90;;;;;;5048017;28;19913;-78
2021/07/01 13:12:00;;;;;;;;;;;17.90;99.90;;;;;;5045867;28;20019;-77
2021/07/01 13:14:26;;;;;;;;;;;17.90;99.90;;;;;;5038036;28;19961;-83
2021/07/01 13:17:05;;;;;;;;;;;18.00;99.90;;;;;;5034244;28;19913;-81
2021/07/01 13:19:31;;;;;;;;;;;18.10;99.90;;;;;;5026927;28;19908;-85
2021/07/01 13:22:03;;;;;;;;;;;18.00;99.90;;;;;;5036240;28;19967;-80
2021/07/01 13:24:29;;;;;;;;;;;18.00;99.90;;;;;;5039430;28;19956;-77
2021/07/01 13:26:56;;;;;;;;;;;18.00;99.90;;;;;;5032688;28;20271;-77
2021/07/01 13:29:34;;;;;;;;;;;17.90;99.90;;;;;;5036772;28;19921;-82
2021/07/01 13:32:03;;;;;;;;;;;17.90;99.90;;;;;;5040011;28;19921;-79
2021/07/01 13:34:29;;;;;;;;;;;17.80;99.90;;;;;;5014771;28;19909;-79
2021/07/01 13:36:54;;;;;;;;;;;17.70;99.90;;;;;;5038287;28;19917;-80
2021/07/01 13:39:31;;;;;;;;;;;17.70;99.90;;;;;;5033969;28;19924;-84
2021/07/01 13:42:16;;;;;;;;;;;17.60;99.90;;;;;;5030196;28;20354;-81
2021/07/01 13:45:00;;;;;;;;;;;17.60;99.90;;;;;;5032781;28;19947;-78
2021/07/01 13:47:27;;;;;;;;;;;17.60;99.90;;;;;;5030287;28;19921;-77
2021/07/01 13:49:53;;;;;;;;;;;17.50;99.90;;;;;;5032380;28;20304;-80
2021/07/01 13:52:19;;;;;;;;;;;17.50;99.90;;;;;;5017333;28;19917;-79
2021/07/01 13:54:45;;;;;;;;;;;17.40;99.90;;;;;;5034278;28;19933;-83
2021/07/01 13:57:11;;;;;;;;;;;17.40;99.90;;;;;;5031180;28;19979;-81
2021/07/01 13:59:36;;;;;;;;;;;17.20;99.90;;;;;;5033405;28;19913;-80
2021/07/01 14:02:20;;;;;;;;;;;17.20;99.90;;;;;;5039482;28;19909;-80
2021/07/01 14:04:46;;;;;;;;;;;17.20;99.90;;;;;;5032380;28;20219;-78
2021/07/01 14:07:12;;;;;;;;;;;17.20;99.90;;;;;;5031215;28;20008;-78
2021/07/01 14:09:38;;;;;;;;;;;17.20;99.90;;;;;;5035314;28;19948;-78
2021/07/01 14:12:03;;;;;;;;;;;17.20;99.90;;;;;;5022873;28;19917;-77
2021/07/01 14:14:32;;;;;;;;;;;17.20;99.90;;;;;;5036738;28;19924;-79
2021/07/01 14:16:57;;;;;;;;;;;17.20;99.90;;;;;;5032093;28;20003;-78
2021/07/01 14:19:24;;;;;;;;;;;17.30;99.90;;;;;;5038133;28;20004;-80
2021/07/01 14:21:51;;;;;;;;;;;17.40;99.90;;;;;;5043654;28;19921;-79